createdAt,value
2022-12-12T00:01:59.328Z,24.27
2022-12-12T00:04:26.956Z,22.63
2022-12-12T00:06:54.562Z,27.33
2022-12-12T00:09:22.256Z,24.90
2022-12-12T00:11:51.248Z,24.63
2022-12-12T00:14:18.868Z,23.48
2022-12-12T00:16:46.507Z,26.17
2022-12-12T00:19:14.217Z,32.65
2022-12-12T00:21:41.885Z,28.63
2022-12-12T00:24:09.729Z,26.40
2022-12-12T00:26:37.578Z,29.67
2022-12-12T00:29:07.186Z,19.38
2022-12-12T00:31:34.926Z,20.17
2022-12-12T00:34:02.704Z,21.85
2022-12-12T00:36:31.262Z,21.40
2022-12-12T00:38:59.585Z,30.08
2022-12-12T00:41:27.396Z,28.00
2022-12-12T00:43:55.211Z,23.92
2022-12-12T00:46:25.605Z,21.35
2022-12-12T00:48:55.311Z,18.05
2022-12-12T00:51:23.706Z,21.98
2022-12-12T00:53:51.815Z,19.13
2022-12-12T00:56:20.175Z,19.73
2022-12-12T00:58:47.855Z,25.20
2022-12-12T01:01:16.728Z,19.65
2022-12-12T01:03:45.772Z,19.17
2022-12-12T01:06:13.597Z,24.40
2022-12-12T01:08:41.657Z,23.58
2022-12-12T01:11:09.787Z,25.33
2022-12-12T01:13:38.109Z,23.83
2022-12-12T01:16:06.281Z,22.42
2022-12-12T01:18:34.052Z,30.83
2022-12-12T01:21:03.174Z,22.65
2022-12-12T01:23:30.776Z,23.45
2022-12-12T01:26:01.978Z,26.25
2022-12-12T01:28:29.714Z,26.35
2022-12-12T01:30:57.389Z,16.30
2022-12-12T01:33:25.066Z,22.08
2022-12-12T01:35:52.732Z,28.67
2022-12-12T01:38:22.010Z,26.13
2022-12-12T01:40:49.613Z,16.75
2022-12-12T01:43:18.615Z,28.63
2022-12-12T01:46:10.413Z,17.65
2022-12-12T01:48:39.845Z,19.90
2022-12-12T01:51:08.898Z,26.42
2022-12-12T01:53:38.521Z,20.17
2022-12-12T01:56:09.517Z,16.67
2022-12-12T01:58:37.202Z,17.75
2022-12-12T02:01:05.000Z,18.83
2022-12-12T02:03:32.956Z,20.85
2022-12-12T02:06:03.509Z,15.77
2022-12-12T02:08:31.485Z,24.92
2022-12-12T02:11:00.486Z,17.27
2022-12-12T02:13:30.655Z,18.38
2022-12-12T02:16:04.361Z,23.80
2022-12-12T02:18:36.572Z,16.13
2022-12-12T02:21:09.478Z,19.73
2022-12-12T02:23:55.285Z,19.30
2022-12-12T02:26:40.130Z,24.73
2022-12-12T02:29:19.318Z,25.17
2022-12-12T02:31:52.982Z,17.90
2022-12-12T02:34:23.552Z,18.45
2022-12-12T02:36:53.554Z,20.00
2022-12-12T02:39:24.224Z,16.55
2022-12-12T02:41:53.410Z,19.48
2022-12-12T02:44:24.739Z,17.55
2022-12-12T02:46:57.246Z,26.17
2022-12-12T02:49:30.348Z,23.00
2022-12-12T02:51:58.839Z,21.50
2022-12-12T02:54:26.590Z,16.60
2022-12-12T02:56:55.724Z,24.25
2022-12-12T02:59:25.453Z,21.23
2022-12-12T03:02:12.468Z,26.05
2022-12-12T03:05:03.443Z,25.45
2022-12-12T03:07:48.428Z,21.20
2022-12-12T03:10:20.788Z,23.63
2022-12-12T03:12:54.376Z,17.17
2022-12-12T03:15:24.004Z,22.08
2022-12-12T03:17:57.710Z,20.77
2022-12-12T03:20:27.575Z,21.60
2022-12-12T03:22:56.487Z,21.05
2022-12-12T03:25:27.650Z,30.02
2022-12-12T03:27:59.701Z,20.73
2022-12-12T03:30:30.024Z,19.75
2022-12-12T03:33:00.696Z,17.38
2022-12-12T03:35:29.988Z,18.60
2022-12-12T03:37:59.674Z,19.60
2022-12-12T03:40:30.986Z,21.13
2022-12-12T03:43:00.786Z,24.02
2022-12-12T03:45:30.630Z,22.30
2022-12-12T03:48:01.882Z,23.60
2022-12-12T03:50:31.627Z,20.60
2022-12-12T03:53:01.559Z,26.00
2022-12-12T03:55:32.221Z,23.70
2022-12-12T03:58:01.693Z,21.58
2022-12-12T04:00:30.479Z,21.08
2022-12-12T04:03:02.639Z,17.38
2022-12-12T04:05:36.864Z,21.50
2022-12-12T04:08:08.687Z,19.95
2022-12-12T04:10:56.489Z,19.30
2022-12-12T04:13:32.271Z,23.45
2022-12-12T04:16:02.308Z,22.38
2022-12-12T04:21:26.842Z,23.77
2022-12-12T04:24:00.988Z,23.35
2022-12-12T04:26:42.026Z,21.27
2022-12-12T04:29:26.932Z,22.55
2022-12-12T04:31:58.209Z,21.08
2022-12-12T04:34:28.688Z,24.48
2022-12-12T04:36:57.781Z,18.63
2022-12-12T04:39:25.972Z,17.48
2022-12-12T04:41:55.005Z,20.50
2022-12-12T04:44:24.291Z,23.42
2022-12-12T04:46:52.825Z,22.23
2022-12-12T04:49:21.553Z,17.80
2022-12-12T04:51:50.738Z,21.25
2022-12-12T04:54:23.480Z,26.50
2022-12-12T04:56:52.823Z,21.95
2022-12-12T04:59:20.831Z,26.58
2022-12-12T05:01:53.670Z,21.77
2022-12-12T05:04:24.596Z,20.50
2022-12-12T05:06:54.647Z,20.33
2022-12-12T05:09:23.830Z,16.83
2022-12-12T05:11:51.439Z,24.67
2022-12-12T05:14:19.343Z,20.63
2022-12-12T05:16:48.500Z,19.23
2022-12-12T05:19:16.192Z,22.92
2022-12-12T05:21:43.870Z,17.40
2022-12-12T05:24:11.556Z,20.60
2022-12-12T05:26:41.043Z,22.73
2022-12-12T05:29:08.838Z,15.32
2022-12-12T05:31:36.821Z,23.67
2022-12-12T05:34:04.901Z,19.38
2022-12-12T05:36:32.747Z,26.52
2022-12-12T05:39:00.419Z,18.58
2022-12-12T05:41:28.052Z,27.92
2022-12-12T05:43:57.223Z,25.58
2022-12-12T05:46:25.025Z,15.98
2022-12-12T05:48:52.786Z,20.00
2022-12-12T05:51:21.098Z,16.42
2022-12-12T05:53:48.742Z,23.98
2022-12-12T05:56:16.469Z,15.13
2022-12-12T05:58:44.225Z,23.58
2022-12-12T06:01:13.222Z,18.70
2022-12-12T06:03:40.885Z,18.77
2022-12-12T06:06:08.920Z,18.80
2022-12-12T06:08:36.599Z,22.23
2022-12-12T06:11:06.623Z,20.95
2022-12-12T06:13:34.327Z,23.38
2022-12-12T06:16:06.623Z,23.73
2022-12-12T06:18:35.856Z,19.35
2022-12-12T06:21:04.474Z,18.83
2022-12-12T06:23:32.215Z,22.00
2022-12-12T06:25:59.898Z,25.00
2022-12-12T06:28:27.921Z,20.48
2022-12-12T06:30:55.824Z,26.52
2022-12-12T06:33:23.530Z,16.63
2022-12-12T06:35:59.832Z,22.23
2022-12-12T06:38:27.771Z,18.48
2022-12-12T06:40:55.515Z,21.58
2022-12-12T06:43:23.271Z,22.48
2022-12-12T06:45:51.118Z,15.43
2022-12-12T06:48:18.837Z,21.95
2022-12-12T06:50:46.993Z,19.58
2022-12-12T06:53:16.735Z,25.63
2022-12-12T06:55:44.703Z,23.50
2022-12-12T06:58:12.390Z,29.70
2022-12-12T07:00:40.022Z,27.58
2022-12-12T07:03:07.734Z,23.13
2022-12-12T07:05:35.636Z,17.17
2022-12-12T07:08:03.403Z,26.17
2022-12-12T07:10:32.589Z,23.45
2022-12-12T07:13:00.349Z,20.17
2022-12-12T07:15:28.002Z,25.10
2022-12-12T07:17:55.672Z,24.98
2022-12-12T07:20:23.321Z,24.17
2022-12-12T07:22:51.071Z,22.73
2022-12-12T07:25:18.768Z,18.63
2022-12-12T07:27:47.750Z,20.73
2022-12-12T07:30:15.493Z,16.60
2022-12-12T07:32:43.279Z,24.05
2022-12-12T07:35:11.153Z,30.95
2022-12-12T07:37:38.874Z,17.42
2022-12-12T07:40:07.022Z,18.02
2022-12-12T07:42:34.650Z,14.65
2022-12-12T07:45:03.650Z,19.08
2022-12-12T07:47:31.477Z,18.17
2022-12-12T07:49:59.097Z,21.02
2022-12-12T07:52:26.731Z,16.67
2022-12-12T07:54:54.363Z,18.58
2022-12-12T07:57:22.087Z,14.23
2022-12-12T07:59:49.814Z,25.45
2022-12-12T08:02:18.853Z,21.70
2022-12-12T08:04:46.581Z,16.77
2022-12-12T08:07:14.235Z,15.77
2022-12-12T08:09:42.055Z,18.63
2022-12-12T08:12:09.827Z,17.10
2022-12-12T08:14:37.946Z,23.80
2022-12-12T08:17:05.541Z,15.27
2022-12-12T08:19:34.766Z,16.13
2022-12-12T08:22:02.401Z,18.63
2022-12-12T08:24:30.104Z,19.40
2022-12-12T08:26:57.893Z,21.63
2022-12-12T08:29:25.737Z,25.20
2022-12-12T08:31:53.433Z,13.73
2022-12-12T08:34:21.032Z,16.02
2022-12-12T08:36:50.812Z,21.00
2022-12-12T08:39:18.923Z,22.58
2022-12-12T08:41:48.009Z,23.27
2022-12-12T08:44:16.201Z,20.67
2022-12-12T08:46:43.925Z,29.73
2022-12-12T08:49:11.666Z,21.13
2022-12-12T08:51:39.737Z,23.98
2022-12-12T08:54:09.237Z,18.42
2022-12-12T08:56:36.960Z,16.88
2022-12-12T08:59:05.897Z,22.33
2022-12-12T09:01:33.870Z,20.20
2022-12-12T09:04:01.653Z,24.73
2022-12-12T09:06:29.414Z,22.73
2022-12-12T09:08:57.957Z,14.43
2022-12-12T09:11:27.724Z,18.75
2022-12-12T09:13:55.393Z,28.98
2022-12-12T09:16:26.284Z,23.75
2022-12-12T09:18:53.989Z,24.38
2022-12-12T09:21:21.667Z,21.83
2022-12-12T09:23:49.516Z,24.60
2022-12-12T09:26:18.758Z,19.52
2022-12-12T09:28:47.771Z,21.10
2022-12-12T09:31:15.676Z,20.67
2022-12-12T09:33:43.567Z,25.48
2022-12-12T09:36:13.801Z,19.58
2022-12-12T09:38:42.502Z,21.58
2022-12-12T09:41:17.018Z,25.85
2022-12-12T09:43:49.115Z,21.58
2022-12-12T09:46:26.011Z,24.27
2022-12-12T09:48:54.716Z,13.70
2022-12-12T09:51:22.393Z,14.80
2022-12-12T09:53:51.536Z,16.80
2022-12-12T09:56:21.646Z,20.02
2022-12-12T09:58:56.990Z,18.65
2022-12-12T10:01:27.614Z,17.55
2022-12-12T10:04:01.639Z,21.05
2022-12-12T10:06:38.553Z,29.95
2022-12-12T10:09:10.431Z,19.42
2022-12-12T10:11:54.393Z,26.33
2022-12-12T10:14:26.190Z,20.98
2022-12-12T10:16:57.762Z,21.40
2022-12-12T10:19:28.705Z,20.33
2022-12-12T10:21:58.919Z,22.20
2022-12-12T10:24:31.128Z,17.30
2022-12-12T10:26:59.205Z,19.00
2022-12-12T10:29:28.702Z,16.95
2022-12-12T10:31:59.924Z,18.67
2022-12-12T10:34:33.369Z,19.05
2022-12-12T10:37:09.794Z,15.98
2022-12-12T10:39:44.358Z,19.02
2022-12-12T10:42:15.585Z,17.20
2022-12-12T10:45:03.939Z,16.38
2022-12-12T10:47:31.768Z,14.00
2022-12-12T10:50:02.958Z,18.60
2022-12-12T10:52:30.620Z,17.58
2022-12-12T10:54:59.770Z,20.20
2022-12-12T10:57:28.074Z,16.33
2022-12-12T10:59:56.555Z,18.33
2022-12-12T11:02:37.027Z,17.92
2022-12-12T11:05:09.444Z,20.60
2022-12-12T11:07:40.620Z,17.25
2022-12-12T11:10:29.117Z,19.38
2022-12-12T11:13:00.782Z,20.05
2022-12-12T11:15:40.544Z,18.05
2022-12-12T11:18:14.717Z,17.35
2022-12-12T11:20:45.195Z,19.25
2022-12-12T11:23:18.479Z,14.25
2022-12-12T11:25:46.625Z,13.88
2022-12-12T11:28:18.363Z,13.25
2022-12-12T11:30:46.016Z,20.63
2022-12-12T11:33:20.237Z,20.08
2022-12-12T11:35:53.382Z,11.85
2022-12-12T11:38:22.264Z,17.30
2022-12-12T11:40:57.627Z,15.73
2022-12-12T11:43:26.177Z,16.90
2022-12-12T11:46:01.183Z,14.13
2022-12-12T11:48:41.625Z,11.10
2022-12-12T11:51:09.280Z,19.67
2022-12-12T11:53:38.713Z,19.08
2022-12-12T11:56:14.587Z,20.13
2022-12-12T11:58:46.908Z,14.98
2022-12-12T12:01:19.635Z,34.42
2022-12-12T12:03:59.382Z,21.77
2022-12-12T12:06:33.451Z,16.60
2022-12-12T12:09:10.956Z,20.15
2022-12-12T12:11:42.475Z,20.17
2022-12-12T12:14:23.295Z,21.98
2022-12-12T12:16:53.956Z,24.88
2022-12-12T12:19:24.867Z,17.98
2022-12-12T12:21:56.742Z,14.88
2022-12-12T12:24:43.033Z,14.30
2022-12-12T12:27:16.267Z,14.98
2022-12-12T12:29:56.979Z,18.77
2022-12-12T12:32:29.600Z,18.48
2022-12-12T12:35:05.782Z,17.35
2022-12-12T12:37:38.361Z,20.20
2022-12-12T12:40:15.485Z,15.80
2022-12-12T12:42:59.774Z,18.75
2022-12-12T12:45:32.338Z,15.93
2022-12-12T12:48:05.813Z,21.17
2022-12-12T12:50:41.528Z,16.63
2022-12-12T12:53:16.921Z,22.05
2022-12-12T12:55:46.910Z,17.23
2022-12-12T12:58:18.696Z,17.98
2022-12-12T13:00:48.189Z,19.58
2022-12-12T13:03:19.750Z,13.85
2022-12-12T13:05:51.686Z,17.70
2022-12-12T13:08:22.164Z,23.98
2022-12-12T13:10:52.345Z,19.20
2022-12-12T13:13:22.768Z,16.58
2022-12-12T13:15:52.538Z,16.63
2022-12-12T13:18:20.196Z,23.23
2022-12-12T13:20:53.128Z,23.80
2022-12-12T13:23:30.866Z,17.65
2022-12-12T13:26:02.635Z,16.00
2022-12-12T13:28:33.403Z,16.85
2022-12-12T13:31:12.719Z,18.05
2022-12-12T13:33:42.783Z,16.75
2022-12-12T13:36:13.972Z,17.90
2022-12-12T13:38:42.047Z,19.90
2022-12-12T13:41:10.801Z,21.00
2022-12-12T13:43:43.942Z,22.23
2022-12-12T13:46:30.747Z,22.95
2022-12-12T13:49:00.094Z,15.43
2022-12-12T13:51:36.537Z,17.92
2022-12-12T13:54:22.924Z,19.98
2022-12-12T13:57:06.805Z,17.77
2022-12-12T13:59:57.487Z,13.05
2022-12-12T14:02:29.686Z,16.83
2022-12-12T14:05:09.804Z,18.25
2022-12-12T14:07:39.688Z,15.73
2022-12-12T14:10:20.133Z,15.80
2022-12-12T14:12:48.359Z,18.58
2022-12-12T14:15:20.758Z,23.00
2022-12-12T14:17:53.729Z,19.88
2022-12-12T14:20:29.906Z,17.88
2022-12-12T14:23:15.419Z,13.70
2022-12-12T14:25:44.498Z,16.98
2022-12-12T14:28:17.039Z,16.42
2022-12-12T14:30:46.374Z,20.52
2022-12-12T14:33:47.463Z,19.08
2022-12-12T14:36:26.651Z,17.05
2022-12-12T14:38:59.595Z,21.40
2022-12-12T14:41:32.053Z,21.33
2022-12-12T14:44:35.349Z,17.00
2022-12-12T14:46:49.578Z,20.15
2022-12-12T14:49:18.127Z,16.02
2022-12-12T14:51:48.047Z,18.08
2022-12-12T14:54:16.511Z,16.80
2022-12-12T14:56:52.253Z,17.30
2022-12-12T14:59:21.852Z,20.10
2022-12-12T15:01:50.956Z,15.93
2022-12-12T15:04:20.852Z,21.40
2022-12-12T15:06:51.308Z,17.58
2022-12-12T15:09:25.822Z,18.42
2022-12-12T15:11:56.204Z,14.32
2022-12-12T15:14:26.038Z,18.33
2022-12-12T15:16:56.387Z,19.02
2022-12-12T15:19:27.356Z,22.35
2022-12-12T15:21:55.299Z,32.38
2022-12-12T15:24:24.490Z,23.42
2022-12-12T15:26:53.942Z,19.08
2022-12-12T15:29:24.678Z,19.30
2022-12-12T15:31:56.125Z,20.65
2022-12-12T15:34:35.670Z,17.48
2022-12-12T15:37:23.614Z,17.60
2022-12-12T15:39:58.492Z,53.83
2022-12-12T15:42:26.342Z,24.80
2022-12-12T15:44:55.570Z,17.02
2022-12-12T15:47:23.499Z,25.00
2022-12-12T15:49:53.008Z,19.42
2022-12-12T15:52:22.547Z,22.40
2022-12-12T15:54:51.693Z,22.58
2022-12-12T15:57:21.160Z,26.70
2022-12-12T15:59:54.455Z,35.72
2022-12-12T16:02:30.525Z,33.80
2022-12-12T16:05:01.050Z,31.13
2022-12-12T16:07:28.763Z,24.35
2022-12-12T16:10:00.673Z,18.15
2022-12-12T16:12:46.834Z,17.83
2022-12-12T16:15:21.113Z,21.38
2022-12-12T16:17:59.959Z,17.45
2022-12-12T16:20:30.553Z,25.77
2022-12-12T16:23:09.252Z,18.50
2022-12-12T16:25:37.108Z,21.95
2022-12-12T16:28:15.796Z,25.13
2022-12-12T16:30:46.636Z,29.92
2022-12-12T16:33:21.494Z,22.90
2022-12-12T16:35:49.120Z,22.27
2022-12-12T16:38:17.477Z,57.10
2022-12-12T16:40:45.911Z,75.07
2022-12-12T16:43:15.765Z,41.85
2022-12-12T16:45:43.786Z,59.72
2022-12-12T16:48:17.903Z,32.13
2022-12-12T16:50:45.896Z,28.33
2022-12-12T16:53:13.545Z,26.35
2022-12-12T16:55:42.854Z,27.63
2022-12-12T16:58:10.925Z,23.52
2022-12-12T17:00:40.005Z,20.02
2022-12-12T17:03:07.950Z,22.20
2022-12-12T17:05:43.887Z,21.77
2022-12-12T17:08:12.104Z,28.92
2022-12-12T17:10:39.930Z,21.42
2022-12-12T17:13:08.473Z,18.52
2022-12-12T17:15:36.160Z,26.00
2022-12-12T17:18:04.304Z,24.88
2022-12-12T17:20:37.895Z,34.03
2022-12-12T17:25:57.249Z,43.08
2022-12-12T17:28:28.784Z,47.83
2022-12-12T17:30:56.418Z,35.72
2022-12-12T17:33:24.082Z,33.83
2022-12-12T17:35:58.401Z,36.25
2022-12-12T17:38:27.706Z,28.23
2022-12-12T17:40:56.797Z,28.05
2022-12-12T17:43:25.053Z,31.98
2022-12-12T17:46:02.485Z,33.22
2022-12-12T17:48:31.226Z,33.17
2022-12-12T17:50:59.858Z,28.27
2022-12-12T17:53:32.220Z,37.75
2022-12-12T17:56:01.124Z,26.98
2022-12-12T17:58:34.988Z,27.17
2022-12-12T18:01:09.537Z,22.42
2022-12-12T18:03:37.341Z,34.97
2022-12-12T18:06:05.283Z,26.15
2022-12-12T18:08:34.450Z,27.08
2022-12-12T18:11:02.307Z,29.05
2022-12-12T18:13:29.948Z,28.58
2022-12-12T18:15:57.917Z,30.00
2022-12-12T18:18:26.221Z,25.05
2022-12-12T18:20:53.950Z,23.05
2022-12-12T18:23:21.701Z,32.17
2022-12-12T18:25:50.680Z,36.63
2022-12-12T18:28:18.534Z,37.78
2022-12-12T18:30:49.104Z,27.15
2022-12-12T18:33:16.947Z,28.30
2022-12-12T18:35:44.700Z,23.50
2022-12-12T18:38:12.325Z,26.80
2022-12-12T18:40:40.580Z,34.47
2022-12-12T18:43:09.580Z,26.77
2022-12-12T18:45:37.605Z,26.05
2022-12-12T18:48:05.718Z,26.60
2022-12-12T18:50:33.889Z,26.33
2022-12-12T18:53:01.568Z,29.30
2022-12-12T18:55:30.565Z,26.38
2022-12-12T18:57:58.336Z,23.73
2022-12-12T19:00:27.768Z,27.95
2022-12-12T19:02:55.426Z,36.42
2022-12-12T19:05:23.160Z,31.67
2022-12-12T19:07:52.393Z,35.35
2022-12-12T19:10:20.391Z,47.40
2022-12-12T19:12:48.043Z,48.05
2022-12-12T19:15:17.147Z,50.92
2022-12-12T19:17:46.852Z,46.75
2022-12-12T19:20:14.813Z,36.50
2022-12-12T19:22:46.914Z,33.50
2022-12-12T19:25:15.230Z,41.30
2022-12-12T19:27:42.901Z,37.05
2022-12-12T19:30:11.936Z,31.50
2022-12-12T19:32:39.855Z,33.97
2022-12-12T19:35:09.928Z,26.65
2022-12-12T19:37:38.448Z,28.05
2022-12-12T19:40:06.714Z,42.00
2022-12-12T19:42:34.380Z,29.88
2022-12-12T19:45:02.021Z,25.58
2022-12-12T19:47:29.873Z,26.02
2022-12-12T19:49:57.630Z,27.27
2022-12-12T19:52:26.733Z,34.75
2022-12-12T19:54:54.425Z,40.97
2022-12-12T19:57:26.238Z,34.45
2022-12-12T19:59:54.538Z,43.90
2022-12-12T20:02:22.300Z,29.15
2022-12-12T20:04:50.137Z,23.25
2022-12-12T20:07:17.832Z,31.00
2022-12-12T20:09:46.887Z,27.90
2022-12-12T20:12:14.622Z,30.05
2022-12-12T20:14:42.258Z,36.90
2022-12-12T20:17:10.880Z,31.60
2022-12-12T20:19:38.769Z,29.00
2022-12-12T20:22:06.450Z,33.38
2022-12-12T20:24:34.369Z,34.88
2022-12-12T20:27:04.457Z,30.27
2022-12-12T20:29:32.272Z,27.73
2022-12-12T20:32:01.709Z,33.97
2022-12-12T20:34:29.879Z,30.70
2022-12-12T20:36:58.808Z,33.03
2022-12-12T20:39:26.635Z,31.08
2022-12-12T20:41:54.719Z,32.03
2022-12-12T20:44:25.371Z,25.15
2022-12-12T20:46:53.124Z,30.10
2022-12-12T20:49:22.273Z,32.70
2022-12-12T20:51:58.304Z,40.13
2022-12-12T20:54:27.456Z,42.10
2022-12-12T20:56:55.799Z,26.13
2022-12-12T20:59:25.037Z,42.47
2022-12-12T21:01:52.879Z,32.45
2022-12-12T21:04:21.080Z,36.35
2022-12-12T21:06:49.772Z,32.47
2022-12-12T21:09:23.684Z,34.15
2022-12-12T21:11:52.119Z,30.52
2022-12-12T21:14:19.826Z,31.17
2022-12-12T21:16:48.855Z,33.20
2022-12-12T21:19:18.824Z,31.70
2022-12-12T21:21:46.926Z,36.92
2022-12-12T21:24:15.332Z,32.13
2022-12-12T21:26:42.984Z,32.65
2022-12-12T21:29:10.917Z,52.25
2022-12-12T21:31:43.418Z,57.58
2022-12-12T21:34:16.507Z,50.35
2022-12-12T21:36:44.560Z,60.20
2022-12-12T21:39:13.368Z,60.53
2022-12-12T21:41:43.815Z,59.60
2022-12-12T21:44:11.619Z,60.90
2022-12-12T21:46:41.919Z,42.58
2022-12-12T21:49:27.660Z,33.55
2022-12-12T21:51:58.438Z,40.05
2022-12-12T21:54:26.500Z,35.53
2022-12-12T21:56:54.146Z,54.42
2022-12-12T21:59:21.848Z,48.13
2022-12-12T22:01:49.663Z,47.35
2022-12-12T22:04:17.451Z,39.05
2022-12-12T22:06:46.033Z,43.28
2022-12-12T22:09:15.076Z,43.88
2022-12-12T22:11:49.685Z,68.78
2022-12-12T22:14:19.233Z,54.05
2022-12-12T22:16:47.066Z,61.10
2022-12-12T22:19:15.509Z,50.97
2022-12-12T22:21:45.055Z,73.70
2022-12-12T22:24:12.709Z,64.07
2022-12-12T22:26:42.254Z,30.20
2022-12-12T22:29:11.869Z,44.15
2022-12-12T22:31:40.287Z,48.45
2022-12-12T22:34:09.337Z,47.85
2022-12-12T22:36:37.906Z,60.13
2022-12-12T22:39:06.258Z,50.40
2022-12-12T22:41:34.179Z,55.15
2022-12-12T22:44:04.157Z,31.42
2022-12-12T22:46:31.878Z,26.63
2022-12-12T22:49:00.703Z,25.98
2022-12-12T22:51:29.291Z,30.45
2022-12-12T22:53:56.958Z,32.58
2022-12-12T22:56:24.713Z,29.80
2022-12-12T22:58:52.556Z,32.65
2022-12-12T23:01:22.550Z,26.50
2022-12-12T23:03:50.362Z,35.83
2022-12-12T23:06:18.809Z,22.40
2022-12-12T23:08:50.460Z,30.40
2022-12-12T23:11:18.197Z,31.80
2022-12-12T23:13:46.143Z,41.08
2022-12-12T23:16:14.636Z,28.98
2022-12-12T23:18:44.142Z,28.55
2022-12-12T23:21:16.768Z,25.58
2022-12-12T23:23:45.147Z,35.70
2022-12-12T23:26:13.864Z,32.60
2022-12-12T23:28:42.063Z,28.40
2022-12-12T23:31:10.315Z,41.00
2022-12-12T23:33:38.203Z,38.60
2022-12-12T23:36:08.466Z,41.15
2022-12-12T23:38:36.122Z,28.20
2022-12-12T23:41:04.496Z,37.13
2022-12-12T23:43:32.171Z,34.58
2022-12-12T23:46:02.039Z,31.60
2022-12-12T23:48:30.194Z,27.45
2022-12-12T23:50:57.895Z,29.58
2022-12-12T23:53:27.297Z,37.88
2022-12-12T23:55:54.952Z,23.13
2022-12-12T23:58:22.641Z,29.60
